Welcome to mirrors.dotsrc.org

All our mirrors of open source software are available via http, https, ftp and an onion service. More information about our mirrors including statistics and contact information is available on our mirror info pages.

For information about dotsrc.org and our other services please go to our website.

Index of /mirrors/trisquel/pool/main/k/

File Name  ↓ File Size  ↓ Date  ↓ 
Parent directory/--
kboot-utils/-2014-02-06 19:41:07
keepnote/-2014-02-06 19:41:48
kqoauth/-2014-02-06 20:10:13
kubuntu-patched-l10n/-2014-03-01 20:38:38
koji/-2016-06-24 19:45:17
ktp-legacy-presence-applet/-2016-06-24 21:23:13
kdeconnect-plasma/-2016-06-24 21:23:21
kimchi/-2016-06-24 21:23:57
konsole4/-2016-06-24 21:24:17
kde-l10n-ast/-2019-04-14 23:33:19
kashmir/-2019-04-15 00:01:01
kryo-serializers/-2019-04-15 00:01:27
klein/-2019-04-15 01:23:17
kadu-mime-tex/-2019-04-15 03:52:08
karlyriceditor/-2019-04-15 03:52:23
kfilereplace/-2019-04-15 03:54:13
klinkstatus/-2019-04-15 03:55:52
knutclient/-2019-04-15 03:56:11
kprinter4/-2019-04-15 03:56:35
kredentials/-2019-04-15 03:56:38
kate4/-2019-04-15 04:16:55
kido/-2019-04-15 04:17:25
kde4pimlibs/-2019-04-15 04:30:34
kdepim4/-2019-04-15 04:30:52
kirigami/-2019-04-15 04:53:39
ktap/-2019-12-03 06:01:57
kdbg/-2020-05-30 22:40:15
kde-artwork-active/-2020-05-30 22:40:15
kde-l10n-eo/-2020-05-30 22:40:16
kde-l10n-tg/-2020-05-30 22:40:17
kde-l10n-si/-2020-05-30 22:40:17
kde-l10n-th/-2020-05-30 22:40:17
key-mon/-2020-05-30 22:40:28
kdesudo/-2020-05-30 22:40:28
kedpm/-2020-05-30 22:40:28
kdesrc-build/-2020-05-30 22:40:28
ketchup/-2020-05-30 22:40:28
kgmailnotifier/-2020-05-30 22:40:29
kmidimon/-2020-05-30 22:40:29
kgraphviewer/-2020-05-30 22:40:29
kpartsplugin/-2020-05-30 22:40:30
komparator/-2020-05-30 22:40:30
kactivities/-2020-12-11 00:05:16
kadu/-2020-12-11 00:05:16
kaccessible/-2020-12-11 00:05:16
k3d/-2020-12-11 00:05:16
kde-l10n-cs/-2020-12-11 00:05:17
kdesdk-strigi-analyzers/-2020-12-11 00:05:17
ksnapshot/-2020-12-11 00:05:17
kde-l10n-he/-2020-12-11 00:05:17
kde-l10n-fa/-2020-12-11 00:05:17
kde-l10n-nds/-2020-12-11 00:05:17
kde-l10n-ar/-2020-12-11 00:05:17
kde-l10n-km/-2020-12-11 00:05:17
kde-l10n-lt/-2020-12-11 00:05:17
kde-l10n-fr/-2020-12-11 00:05:17
kde-runtime/-2020-12-11 00:05:17
kdevplatform/-2020-12-11 00:05:17
kdev-python/-2020-12-11 00:05:17
kde-l10n-nl/-2020-12-11 00:05:17
kde-l10n-ia/-2020-12-11 00:05:17
kdenetwork-strigi-analyzers/-2020-12-11 00:05:17
kde-l10n-ug/-2020-12-11 00:05:17
kde-l10n-nb/-2020-12-11 00:05:17
kde-l10n-ga/-2020-12-11 00:05:17
kde-l10n-hr/-2020-12-11 00:05:17
keysync/-2020-12-11 00:05:17
kde-l10n-bs/-2020-12-11 00:05:17
kde-l10n-et/-2020-12-11 00:05:17
kde-l10n-pa/-2020-12-11 00:05:17
kde-l10n-bg/-2020-12-11 00:05:17
kio-mtp/-2020-12-11 00:05:17
kremotecontrol/-2020-12-11 00:05:17
kde-l10n-pl/-2020-12-11 00:05:17
kde-l10n-es/-2020-12-11 00:05:17
kde-l10n-wa/-2020-12-11 00:05:17
kde-l10n-hu/-2020-12-11 00:05:17
kfritz/-2020-12-11 00:05:17
kde-l10n-ca-valencia/-2020-12-11 00:05:17
kppp/-2020-12-11 00:05:17
kdegraphics-strigi-analyzer/-2020-12-11 00:05:17
kde-l10n-gl/-2020-12-11 00:05:17
kde-l10n-zhcn/-2020-12-11 00:05:17
kde-baseapps/-2020-12-11 00:05:17
kde-l10n-ca/-2020-12-11 00:05:17
krecipes/-2020-12-11 00:05:17
kde-l10n-it/-2020-12-11 00:05:17
kde-l10n-ro/-2020-12-11 00:05:17
kde-l10n-kk/-2020-12-11 00:05:17
kde-l10n-sl/-2020-12-11 00:05:17
ksaneplugin/-2020-12-11 00:05:17
kde-l10n-hi/-2020-12-11 00:05:17
kde-l10n-sr/-2020-12-11 00:05:17
kde-l10n-zhtw/-2020-12-11 00:05:17
kde-l10n-tr/-2020-12-11 00:05:17
kde-l10n-sk/-2020-12-11 00:05:17
kde4libs/-2020-12-11 00:05:17
kdevelop-php-docs/-2020-12-11 00:05:17
kanla/-2020-12-11 00:05:17
kdepim/-2020-12-11 00:05:17
kde-wallpapers/-2020-12-11 00:05:17
kfilemetadata/-2020-12-11 00:05:17
kde-l10n-ptbr/-2020-12-11 00:05:17
kde-l10n-is/-2020-12-11 00:05:17
kde-l10n-engb/-2020-12-11 00:05:17
kdeartwork/-2020-12-11 00:05:17
kde-l10n-da/-2020-12-11 00:05:17
kde-l10n-de/-2020-12-11 00:05:17
kde-l10n-ja/-2020-12-11 00:05:17
kde-l10n-mr/-2020-12-11 00:05:17
kde-l10n-vi/-2020-12-11 00:05:17
kde-l10n-nn/-2020-12-11 00:05:17
kde-l10n-uk/-2020-12-11 00:05:17
kde-l10n-el/-2020-12-11 00:05:17
kdepimlibs/-2020-12-11 00:05:17
kde-l10n-fi/-2020-12-11 00:05:17
kde-l10n-sv/-2020-12-11 00:05:17
khronos-opengl-man4/-2020-12-11 00:05:17
kde-l10n-eu/-2020-12-11 00:05:17
kde-l10n-lv/-2020-12-11 00:05:17
kdewebdev/-2020-12-11 00:05:17
kde-l10n-ko/-2020-12-11 00:05:17
kscd/-2020-12-11 00:05:17
kde-l10n-pt/-2020-12-11 00:05:17
kde-base-artwork/-2020-12-11 00:05:17
kde-l10n-ru/-2020-12-11 00:05:17
kradio4/-2020-12-11 00:05:17
kde-l10n-id/-2020-12-11 00:05:17
kyototycoon/-2020-12-11 00:05:18
kubuntu-web-shortcuts/-2020-12-11 00:05:18
kuser/-2020-12-11 00:05:18
kubuntu-meta/-2020-12-11 00:05:18
kvpm/-2020-12-11 00:05:18
kernel-handbook/-2020-12-11 19:34:56
kanif/-2020-12-11 19:46:02
kamcli/-2020-12-11 19:46:02
kernel-package/-2020-12-11 19:46:18
keyringer/-2020-12-11 19:46:19
kopano-webapp/-2020-12-11 19:46:49
kubernetes/-2020-12-11 19:46:59
kubetail/-2020-12-11 19:46:59
kup/-2020-12-11 19:47:00
keras/-2020-12-11 20:05:51
kitchen/-2020-12-11 20:05:51
kdevelop-python/-2021-09-20 23:38:33
kismet/-2021-09-20 23:38:40
ksh/-2021-09-20 23:38:48
ksysguard/-2021-09-20 23:38:49
kblog/-2021-09-20 23:42:27
kf5-kdepim-apps-libs/-2021-09-20 23:42:31
kodiplatform/-2021-09-20 23:42:33
kmodpy/-2021-09-20 23:49:57
khronos-api/-2021-11-20 01:07:04
kboot-installer/-2022-03-08 19:33:44
kde-thumbnailer-openoffice/-2022-03-08 19:33:44
kopete-plugin-thinklight/-2022-03-08 19:33:45
kcm-qt-graphicssystem/-2022-03-08 19:33:45
kingston-update-notifier/-2022-03-08 19:33:45
kon2/-2022-03-08 19:33:45
kopete-message-indicator/-2022-03-08 19:33:45
kolabadmin/-2022-03-08 19:33:46
kgrab/-2022-03-08 19:33:46
kiconedit/-2022-03-08 19:33:46
kitsune/-2022-03-08 19:33:46
kover/-2022-03-08 19:33:46
kscope/-2022-03-08 19:33:46
kepas/-2022-03-08 19:33:46
ksh93/-2022-03-08 19:33:47
kmess/-2022-03-08 19:33:47
kftpgrabber/-2022-03-08 19:33:47
kffmpegthumbnailer/-2022-03-08 21:44:22
kde-service-menu-fuseiso/-2022-03-08 21:44:22
killer/-2022-03-08 21:44:23
khmerconverter/-2022-03-08 21:44:25
kiki/-2022-03-08 21:44:26
kamerka/-2022-03-08 21:44:26
kaa-imlib2/-2022-03-08 21:44:26
kalternatives/-2022-03-08 21:44:26
knocker/-2022-03-08 21:44:26
keytouch-editor/-2022-03-08 21:44:27
kaa-metadata/-2022-03-08 21:44:27
kcollectd/-2022-03-08 21:44:27
kterm/-2022-03-08 21:44:27
kimwitu-doc/-2022-03-08 21:44:28
kmldonkey/-2022-03-08 21:44:28
kontrolpack/-2022-03-08 21:44:28
kayali/-2022-03-08 21:44:28
klone/-2022-03-08 21:44:28
kid/-2022-03-08 21:44:28
kimwitu/-2022-03-08 21:44:28
kaa-base/-2022-03-08 21:44:28
kvpnc/-2022-03-08 21:44:29
kimwitu++/-2022-03-08 21:44:29
kiwi/-2022-03-08 21:44:29
kmer-tools/-2022-03-08 21:44:30
kiki-the-nano-bot/-2022-03-08 21:44:30
ko.tex-unfonts/-2022-03-08 21:44:31
ko.tex-extra-hlfont/-2022-03-08 21:44:31
krank/-2022-03-08 21:44:31
kstars-data-extra-tycho2/-2022-03-08 21:44:31
key-chord-el/-2022-06-04 15:27:31
kajongg/-2022-06-04 15:40:17
kanjidic/-2022-06-04 15:40:19
kanboard-cli/-2022-06-04 15:40:19
kapidox/-2022-06-04 15:40:20
kaptive/-2022-06-04 15:40:20
kazam/-2022-06-04 15:40:20
kas/-2022-06-04 15:40:20
kanyremote/-2022-06-04 15:40:20
kdeedu-data/-2022-06-04 15:40:22
kde-dev-scripts/-2022-06-04 15:40:25
kernel-wedge/-2022-06-04 15:40:27
kephra/-2022-06-04 15:40:27
keepass2-plugin-keepasshttp/-2022-06-04 15:40:27
keepass2/-2022-06-04 15:40:27
keyboards-rg/-2022-06-04 15:40:28
keystone-tempest-plugin/-2022-06-04 15:40:28
keymapper/-2022-06-04 15:40:28
keychain/-2022-06-04 15:40:28
kgb-bot/-2022-06-04 15:40:29
khard/-2022-06-04 15:40:30
khal/-2022-06-04 15:40:30
kicad-footprints/-2022-06-04 15:40:36
kicad-symbols/-2022-06-04 15:41:03
kicad-packages3d/-2022-06-04 15:41:03
kicad-templates/-2022-06-04 15:41:03
kindleclip/-2022-06-04 15:41:04
king/-2022-06-04 15:41:05
kmfl-keyboards-mywin/-2022-06-04 15:41:10
knockpy/-2022-06-04 15:41:11
konfont/-2022-06-04 15:41:19
kotlin/-2022-06-04 15:41:22
kpcli/-2022-06-04 15:41:22
kerberos-configs/-2022-06-04 15:41:23
krop/-2022-06-04 15:41:26
kthresher/-2022-06-04 15:41:30
kunststoff/-2022-06-04 15:41:34
kupfer/-2022-06-04 15:41:34
kuttypy/-2022-06-04 15:41:34
kwalify/-2022-06-04 15:41:35
kwartz-client/-2022-06-04 15:41:35
kytos-utils/-2022-06-04 15:41:36
knowl.js/-2022-06-04 15:53:09
kazocsaba-imageviewer/-2022-06-04 15:53:32
kdgcommons-java/-2022-06-04 15:53:39
kitchensink-clojure/-2022-06-04 15:54:07
knopflerfish-osgi/-2022-06-04 15:54:08
kxml2/-2022-06-04 15:54:09
khronos-opencl-clhpp/-2022-06-04 16:05:51
khronos-opencl-man/-2022-06-04 16:05:51
khronos-opencl-headers/-2022-06-04 16:05:51
kazoo/-2022-06-04 16:15:20
karabo-bridge/-2022-06-04 16:15:20
keyrings.alt/-2022-06-04 16:15:20
keras-preprocessing/-2022-06-04 16:15:20
kconfiglib/-2022-06-04 16:15:20
kanjidraw/-2022-06-04 16:15:20
keras-applications/-2022-06-04 16:15:20
keyman-config/-2022-06-04 16:15:20
keystone/-2022-06-04 16:15:20
klaus/-2022-06-04 16:15:21
kytos-sphinx-theme/-2022-06-04 16:15:21
kombu/-2022-06-04 16:15:21
knitpy/-2022-06-04 16:15:21
knack/-2022-06-04 16:15:21
keepassxc-browser/-2022-06-04 16:52:55
kpatch/-2022-06-08 11:24:54
kafs-client/-2022-06-08 11:27:52
kmail-account-wizard/-2022-06-08 11:35:48
kafkacat/-2022-06-08 11:43:38
kactivitymanagerd/-2022-06-08 11:43:38
k2pdfopt/-2022-06-08 11:43:38
kali/-2022-06-08 11:43:38
kalign/-2022-06-08 11:43:38
kaccounts-providers/-2022-06-08 11:43:38
kaffeine/-2022-06-08 11:43:38
kalgebra/-2022-06-08 11:43:38
kakoune/-2022-06-08 11:43:38
kallisto/-2022-06-08 11:43:38
kalarm/-2022-06-08 11:43:38
kalzium/-2022-06-08 11:43:38
kaddressbook/-2022-06-08 11:43:38
k4dirstat/-2022-06-08 11:43:38
kaidan/-2022-06-08 11:43:38
kblocks/-2022-06-08 11:43:39
kbackup/-2022-06-08 11:43:39
kapman/-2022-06-08 11:43:39
kbdd/-2022-06-08 11:43:39
kbounce/-2022-06-08 11:43:39
kblackbox/-2022-06-08 11:43:39
kanagram/-2022-06-08 11:43:39
kball/-2022-06-08 11:43:39
kasumi/-2022-06-08 11:43:39
katomic/-2022-06-08 11:43:39
kanjipad/-2022-06-08 11:43:39
kapptemplate/-2022-06-08 11:43:39
kawari8/-2022-06-08 11:43:39
kamailio/-2022-06-08 11:43:39
kannel/-2022-06-08 11:43:39
kbreakout/-2022-06-08 11:43:39
kbibtex/-2022-06-08 11:43:39
kamoso/-2022-06-08 11:43:39
kamera/-2022-06-08 11:43:39
kanshi/-2022-06-08 11:43:39
kannel-sqlbox/-2022-06-08 11:43:39
katarakt/-2022-06-08 11:43:39
kanatest/-2022-06-08 11:43:39
ktp-send-file/-2022-06-08 11:43:40
kbtin/-2022-06-08 11:43:40
kcolorchooser/-2022-06-08 11:43:40
ktp-filetransfer-handler/-2022-06-08 11:43:40
kde-cli-tools/-2022-06-08 11:43:40
ktp-text-ui/-2022-06-08 11:43:40
kde-gtk-config/-2022-06-08 11:43:40
ktp-kded-integration-module/-2022-06-08 11:43:40
kcharselect/-2022-06-08 11:43:40
kbruch/-2022-06-08 11:43:40
kcov/-2022-06-08 11:43:40
kcc/-2022-06-08 11:43:40
kcm-fcitx5/-2022-06-08 11:43:40
kdebugsettings/-2022-06-08 11:43:40
kconfig-frontends/-2022-06-08 11:43:40
kde-config-systemd/-2022-06-08 11:43:40
kcheckers/-2022-06-08 11:43:40
ktp-desktop-applets/-2022-06-08 11:43:40
ktp-approver/-2022-06-08 11:43:40
kchmviewer/-2022-06-08 11:43:40
kcalc/-2022-06-08 11:43:40
ktp-contact-list/-2022-06-08 11:43:40
ktp-call-ui/-2022-06-08 11:43:40
kcptun/-2022-06-08 11:43:40
kdeconnect/-2022-06-08 11:43:40
kde-spectacle/-2022-06-08 11:43:40
kcm-fcitx/-2022-06-08 11:43:40
kcron/-2022-06-08 11:43:40
kbuild/-2022-06-08 11:43:40
ktp-auth-handler/-2022-06-08 11:43:40
kcachegrind/-2022-06-08 11:43:40
kdc2tiff/-2022-06-08 11:43:40
kdegraphics-thumbnailers/-2022-06-08 11:43:41
kdenetwork-filesharing/-2022-06-08 11:43:41
kded/-2022-06-08 11:43:41
kdepim-addons/-2022-06-08 11:43:45
kdesdk-thumbnailers/-2022-06-08 11:43:47
kdesvn/-2022-06-08 11:43:47
kdepim-runtime/-2022-06-08 11:43:47
kdevelop-pg-qt/-2022-06-08 11:43:48
kdf/-2022-06-08 11:43:50
kdevelop-php/-2022-06-08 11:43:50
kdialog/-2022-06-08 11:43:50
kdiamond/-2022-06-08 11:43:53
kdocker/-2022-06-08 11:43:55
kdiff3/-2022-06-08 11:43:55
kgamma5/-2022-06-08 11:43:58
kerneltop/-2022-06-08 11:43:58
keurocalc/-2022-06-08 11:43:58
kgb/-2022-06-08 11:43:58
kfind/-2022-06-08 11:43:58
kgeography/-2022-06-08 11:43:58
kerneloops/-2022-06-08 11:43:58
kfloppy/-2022-06-08 11:43:58
kexi/-2022-06-08 11:43:58
keepassxc/-2022-06-08 11:43:58
kfourinline/-2022-06-08 11:43:58
kel-agent/-2022-06-08 11:43:58
kelbt/-2022-06-08 11:43:58
kexec-tools/-2022-06-08 11:43:58
kdesignerplugin/-2022-06-08 11:43:58
keditbookmarks/-2022-06-08 11:43:58
keyboardcast/-2022-06-08 11:43:58
kgames/-2022-06-08 11:43:58
keynav/-2022-06-08 11:43:58
keepalived/-2022-06-08 11:43:58
ketm/-2022-06-08 11:43:58
keepassx/-2022-06-08 11:43:58
keylaunch/-2022-06-08 11:43:58
kgoldrunner/-2022-06-08 11:44:00
kget/-2022-06-08 11:44:00
khotkeys/-2022-06-08 11:44:01
kgpg/-2022-06-08 11:44:01
khangman/-2022-06-08 11:44:01
khelpcenter/-2022-06-08 11:44:01
kickoff/-2022-06-08 11:44:02
kino/-2022-06-08 11:44:02
kid3/-2022-06-08 11:44:02
kildclient/-2022-06-08 11:44:02
kinput2/-2022-06-08 11:44:02
killbots/-2022-06-08 11:44:02
kigo/-2022-06-08 11:44:02
kinit/-2022-06-08 11:44:02
kimageformats/-2022-06-08 11:44:02
kicad/-2022-06-08 11:44:02
kig/-2022-06-08 11:44:02
kile/-2022-06-08 11:44:02
king-probe/-2022-06-08 11:44:02
kimagemapeditor/-2022-06-08 11:44:02
kiriki/-2022-06-08 11:44:03
kiten/-2022-06-08 11:44:03
klavaro/-2022-06-08 11:44:03
kio-gopher/-2022-06-08 11:44:03
kio-gdrive/-2022-06-08 11:44:03
kipi-plugins/-2022-06-08 11:44:03
kiwix/-2022-06-08 11:44:03
kiwix-tools/-2022-06-08 11:44:03
kjumpingcube/-2022-06-08 11:44:03
kdesdk-kioslaves/-2022-06-08 11:44:03
kio-fuse/-2022-06-08 11:44:03
kjots/-2022-06-08 11:44:03
kio-extras/-2022-06-08 11:44:03
kissplice/-2022-06-08 11:44:03
klayout/-2022-06-08 11:44:03
kirigami-gallery/-2022-06-08 11:44:03
kmplayer/-2022-06-08 11:44:04
kmscube/-2022-06-08 11:44:04
kmerresistance/-2022-06-08 11:44:04
kluppe/-2022-06-08 11:44:04
kmetronome/-2022-06-08 11:44:04
kmag/-2022-06-08 11:44:04
klickety/-2022-06-08 11:44:04
klettres/-2022-06-08 11:44:04
kmahjongg/-2022-06-08 11:44:04
knavalbattle/-2022-06-08 11:44:04
kmousetool/-2022-06-08 11:44:04
kmymoney/-2022-06-08 11:44:04
kmenuedit/-2022-06-08 11:44:04
kleborate/-2022-06-08 11:44:04
klog/-2022-06-08 11:44:04
knetwalk/-2022-06-08 11:44:04
knews/-2022-06-08 11:44:04
klines/-2022-06-08 11:44:04
kmplot/-2022-06-08 11:44:04
kmix/-2022-06-08 11:44:04
klystrack/-2022-06-08 11:44:04
klustakwik/-2022-06-08 11:44:04
kleopatra/-2022-06-08 11:44:04
klick/-2022-06-08 11:44:04
kmines/-2022-06-08 11:44:04
kmouth/-2022-06-08 11:44:04
kma/-2022-06-08 11:44:04
kodi-pvr-pctv/-2022-06-08 11:44:05
kodi-audiodecoder-openmpt/-2022-06-08 11:44:05
kodi-audioencoder-vorbis/-2022-06-08 11:44:05
kodi-visualization-pictureit/-2022-06-08 11:44:05
kodi-pvr-dvblink/-2022-06-08 11:44:05
kobodeluxe/-2022-06-08 11:44:05
kodi-pvr-iptvsimple/-2022-06-08 11:44:05
kodi-pvr-zattoo/-2022-06-08 11:44:05
kodi-audioencoder-wav/-2022-06-08 11:44:05
kodi-visualization-spectrum/-2022-06-08 11:44:05
knowthelist/-2022-06-08 11:44:05
kodi-pvr-dvbviewer/-2022-06-08 11:44:05
knights/-2022-06-08 11:44:05
kodi-pvr-mediaportal-tvserver/-2022-06-08 11:44:05
kodi-pvr-nextpvr/-2022-06-08 11:44:05
kodi-audiodecoder-sidplay/-2022-06-08 11:44:05
kodi-screensaver-pyro/-2022-06-08 11:44:05
kodi-pvr-vdr-vnsi/-2022-06-08 11:44:05
kodi-visualization-waveform/-2022-06-08 11:44:05
knxd/-2022-06-08 11:44:05
kodi-pvr-teleboy/-2022-06-08 11:44:05
kodi-screensaver-asteroids/-2022-06-08 11:44:05
kodi-visualization-shadertoy/-2022-06-08 11:44:05
knot-resolver/-2022-06-08 11:44:05
kodi-pvr-filmon/-2022-06-08 11:44:05
kodi-pvr-mythtv/-2022-06-08 11:44:05
kodi-vfs-libarchive/-2022-06-08 11:44:05
kodi-pvr-waipu/-2022-06-08 11:44:05
kodi-peripheral-xarcade/-2022-06-08 11:44:05
kodi-pvr-wmc/-2022-06-08 11:44:05
kodi-imagedecoder-raw/-2022-06-08 11:44:05
kodi-screensaver-pingpong/-2022-06-08 11:44:05
kodi/-2022-06-08 11:44:05
kodi-pvr-hts/-2022-06-08 11:44:05
kodi-imagedecoder-heif/-2022-06-08 11:44:05
kodi-pvr-argustv/-2022-06-08 11:44:05
kodi-peripheral-joystick/-2022-06-08 11:44:05
kodi-pvr-njoy/-2022-06-08 11:44:05
knotes/-2022-06-08 11:44:05
kodi-pvr-vbox/-2022-06-08 11:44:05
kodi-audiodecoder-fluidsynth/-2022-06-08 11:44:05
kodi-inputstream-ffmpegdirect/-2022-06-08 11:44:05
kodi-screensaver-shadertoy/-2022-06-08 11:44:05
kodi-visualization-fishbmc/-2022-06-08 11:44:05
kodi-audioencoder-lame/-2022-06-08 11:44:05
kodi-pvr-octonet/-2022-06-08 11:44:05
kodi-screensaver-biogenesis/-2022-06-08 11:44:05
kodi-pvr-hdhomerun/-2022-06-08 11:44:05
kodi-pvr-stalker/-2022-06-08 11:44:05
knockd/-2022-06-08 11:44:05
kodi-screensaver-greynetic/-2022-06-08 11:44:05
kodi-pvr-sledovanitv-cz/-2022-06-08 11:44:05
kodi-pvr-vuplus/-2022-06-08 11:44:05
kodi-vfs-sftp/-2022-06-08 11:44:05
kodi-audioencoder-flac/-2022-06-08 11:44:05
kontrast/-2022-06-08 11:44:06
konquest/-2022-06-08 11:44:06
kontact/-2022-06-08 11:44:06
kolourpaint/-2022-06-08 11:44:06
konsole/-2022-06-08 11:44:06
kore/-2022-06-08 11:44:06
kolf/-2022-06-08 11:44:06
kookbook/-2022-06-08 11:44:06
kongress/-2022-06-08 11:44:06
kollision/-2022-06-08 11:44:06
konwert/-2022-06-08 11:44:06
korganizer/-2022-06-08 11:44:06
komposter/-2022-06-08 11:44:06
konclude/-2022-06-08 11:44:06
koules/-2022-06-08 11:44:06
konversation/-2022-06-08 11:44:06
komi/-2022-06-08 11:44:06
krusader/-2022-06-08 11:44:07
kraken2/-2022-06-08 11:44:07
kraft/-2022-06-08 11:44:07
kruler/-2022-06-08 11:44:07
kraken/-2022-06-08 11:44:07
krita/-2022-06-08 11:44:07
kreversi/-2022-06-08 11:44:07
krb5-auth-dialog/-2022-06-08 11:44:07
kraptor/-2022-06-08 11:44:07
kpat/-2022-06-08 11:44:07
kphotoalbum/-2022-06-08 11:44:07
kpeoplevcard/-2022-06-08 11:44:07
krb5-strength/-2022-06-08 11:44:07
kronometer/-2022-06-08 11:44:07
krename/-2022-06-08 11:44:07
kross-interpreters/-2022-06-08 11:44:07
krfb/-2022-06-08 11:44:07
krdc/-2022-06-08 11:44:07
krb5-sync/-2022-06-08 11:44:07
kde-dev-utils/-2022-06-08 11:44:08
kst/-2022-06-08 11:44:08
ktechlab/-2022-06-08 11:44:08
ksnakeduel/-2022-06-08 11:44:08
ktorrent/-2022-06-08 11:44:08
ktimetracker/-2022-06-08 11:44:08
ksshaskpass/-2022-06-08 11:44:08
kwalletcli/-2022-06-08 11:44:08
ksirk/-2022-06-08 11:44:08
kup-backup/-2022-06-08 11:44:08
kturtle/-2022-06-08 11:44:08
kstart/-2022-06-08 11:44:08
kmail/-2022-06-08 11:44:08
ksudoku/-2022-06-08 11:44:08
kteatime/-2022-06-08 11:44:08
ktouch/-2022-06-08 11:44:08
ksmbd-tools/-2022-06-08 11:44:08
kspaceduel/-2022-06-08 11:44:08
ksystemlog/-2022-06-08 11:44:08
kvmtool/-2022-06-08 11:44:08
kstars/-2022-06-08 11:44:08
kshisen/-2022-06-08 11:44:08
ktimer/-2022-06-08 11:44:08
ksmtuned/-2022-06-08 11:44:08
ksnip/-2022-06-08 11:44:08
ksquares/-2022-06-08 11:44:08
kshutdown/-2022-06-08 11:44:08
kubecolor/-2022-06-08 11:44:08
kubrick/-2022-06-08 11:44:08
kwalletmanager/-2022-06-08 11:44:08
kubuntu-notification-helper/-2022-06-08 11:44:08
ksh93u+m/-2022-06-08 11:44:08
kubuntu-debug-installer/-2022-06-08 11:44:08
ktuberling/-2022-06-08 11:44:08
kubernetes-split-yaml/-2022-06-08 11:44:08
kuvert/-2022-06-08 11:44:08
kworkflow/-2022-06-08 11:44:09
kylin-scanner/-2022-06-08 11:44:09
kxstitch/-2022-06-08 11:44:09
kylin-video/-2022-06-08 11:44:09
kwayland-integration/-2022-06-08 11:44:09
kwstyle/-2022-06-08 11:44:09
kylin-nm/-2022-06-08 11:44:09
kyua/-2022-06-08 11:44:09
kwordquiz/-2022-06-08 11:44:09
kwrited/-2022-06-08 11:44:09
kwave/-2022-06-08 11:44:09
kxd/-2022-06-08 11:44:09
kylin-display-switch/-2022-06-08 11:44:09
kylin-greeter/-2022-06-08 11:44:09
kate/-2022-06-08 11:44:09
k3b/-2022-06-08 11:46:33
kcolorpicker/-2022-06-08 11:46:34
kdecoration/-2022-06-08 11:46:34
kakasi/-2022-06-08 11:46:34
kdb/-2022-06-08 11:46:34
keybinder-3.0/-2022-06-08 11:46:35
keyutils/-2022-06-08 11:46:35
keybinder/-2022-06-08 11:46:35
kactivities-stats/-2022-06-08 11:46:35
kdsoap/-2022-06-08 11:46:35
karchive/-2022-06-08 11:46:37
kauth/-2022-06-08 11:46:37
kalarmcal/-2022-06-08 11:46:37
kbookmarks/-2022-06-08 11:46:37
kcrash/-2022-06-08 11:46:38
kcompletion/-2022-06-08 11:46:38
kcalcore/-2022-06-08 11:46:38
kcontacts/-2022-06-08 11:46:38
kcoreaddons/-2022-06-08 11:46:38
kcalutils/-2022-06-08 11:46:38
kdnssd-kf5/-2022-06-08 11:46:38
kdav/-2022-06-08 11:46:38
kdoctools/-2022-06-08 11:46:38
kcodecs/-2022-06-08 11:46:38
kemoticons/-2022-06-08 11:46:38
kconfigwidgets/-2022-06-08 11:46:38
kdbusaddons/-2022-06-08 11:46:38
kconfig/-2022-06-08 11:46:38
kimap/-2022-06-08 11:46:39
kio/-2022-06-08 11:46:39
kguiaddons/-2022-06-08 11:46:39
kdelibs4support/-2022-06-08 11:46:39
kfilemetadata-kf5/-2022-06-08 11:46:39
kiconthemes/-2022-06-08 11:46:39
kglobalaccel/-2022-06-08 11:46:39
kidletime/-2022-06-08 11:46:39
kitemviews/-2022-06-08 11:46:39
kidentitymanagement/-2022-06-08 11:46:39
kjobwidgets/-2022-06-08 11:46:39
kjsembed/-2022-06-08 11:46:39
kcmutils/-2022-06-08 11:46:39
khtml/-2022-06-08 11:46:39
kmediaplayer/-2022-06-08 11:46:40
kunitconversion/-2022-06-08 11:46:40
kxmlgui/-2022-06-08 11:46:40
knotifyconfig/-2022-06-08 11:46:40
kdewebkit/-2022-06-08 11:46:40
kwindowsystem/-2022-06-08 11:46:40
kdiagram/-2022-06-08 11:46:40
kparts/-2022-06-08 11:46:40
kpackage/-2022-06-08 11:46:40
kjs/-2022-06-08 11:46:40
kwayland/-2022-06-08 11:46:40
kf5-messagelib/-2022-06-08 11:46:40
ktexteditor/-2022-06-08 11:46:40
kmbox/-2022-06-08 11:46:40
kickpass/-2022-06-08 11:46:40
kldap/-2022-06-08 11:46:40
kross/-2022-06-08 11:46:40
kxmlrpcclient/-2022-06-08 11:46:40
kmailtransport/-2022-06-08 11:46:40
kmime/-2022-06-08 11:46:40
kplotting/-2022-06-08 11:46:40
ktextwidgets/-2022-06-08 11:46:40
kservice/-2022-06-08 11:46:40
kpimtextedit/-2022-06-08 11:46:40
konqueror/-2022-06-08 11:46:40
kontactinterface/-2022-06-08 11:46:40
kwidgetsaddons/-2022-06-08 11:46:40
kpty/-2022-06-08 11:46:40
ktnef/-2022-06-08 11:46:40
kmflcomp/-2022-06-08 11:46:41
kompare/-2022-06-08 11:46:41
kmc/-2022-06-08 11:46:41
kpkpass/-2022-06-08 11:46:41
klatexformula/-2022-06-08 11:46:41
kpmcore/-2022-06-08 11:46:41
ksmtp/-2022-06-08 11:46:41
kreport/-2022-06-08 11:46:41
kscreenlocker/-2022-06-08 11:46:41
kim-api/-2022-06-08 11:46:41
keyman-keyboardprocessor/-2022-06-08 11:46:41
kimageannotator/-2022-06-08 11:46:41
kproperty/-2022-06-08 11:46:41
kitinerary/-2022-06-08 11:46:41
kernelshark/-2022-06-08 11:46:41
kissfft/-2022-06-08 11:46:41
kwallet-kf5/-2022-06-08 11:46:42
kyotocabinet/-2022-06-08 11:46:42
kxl/-2022-06-08 11:46:42
kvirc/-2022-06-08 11:46:42
kronosnet/-2022-06-08 11:47:38
kwallet-pam/-2022-06-08 11:47:53
khmer/-2022-06-08 11:47:53
kstore/-2022-06-08 11:47:53
kdegraphics-mobipocket/-2022-06-08 11:48:36
knot/-2022-06-08 11:49:56
kdrill/-2022-06-08 11:50:08
kylin-burner/-2022-06-08 11:50:49
kdevelop/-2022-06-08 11:52:03
ktp-contact-runner/-2022-06-08 11:52:04
kineticstools/-2022-06-08 11:52:56
kiwisolver/-2022-06-08 11:52:57
kivy/-2022-06-08 11:52:57
kopanocore/-2022-06-08 11:52:59
kqtquickcharts/-2022-06-08 11:53:21
kaccounts-integration/-2022-06-08 11:53:21
kholidays/-2022-06-08 11:53:21
kdeclarative/-2022-06-08 11:53:21
ktp-common-internals/-2022-06-08 11:53:21
kirigami2/-2022-06-08 11:53:21
kquickcharts/-2022-06-08 11:53:21
kuserfeedback/-2022-06-08 11:53:21
kquickimageeditor/-2022-06-08 11:53:21
kactivities-kf5/-2022-06-08 11:53:21
krunner/-2022-06-08 11:53:21
ksyntax-highlighting/-2022-06-08 11:53:21
ki18n/-2022-06-08 11:53:21
kpeople/-2022-06-08 11:53:21
kitemmodels/-2022-06-08 11:53:21
knotifications/-2022-06-08 11:53:21
ktikz/-2022-06-08 11:53:36
kernsmooth/-2022-06-08 11:53:51
klibc/-2022-06-09 19:06:31
ktp-accounts-kcm/-2022-06-25 16:26:14
kopete/-2022-06-25 19:04:29
kmer/-2022-07-31 20:33:12
ksystemstats/-2022-09-05 13:14:02
kwayland-server/-2022-09-05 13:14:02
knewstuff/-2022-09-12 19:07:55
kdesu/-2022-09-12 19:07:55
kitty/-2022-10-06 07:06:30
kubuntu-driver-manager/-2022-11-13 19:05:59
kscreen/-2022-11-21 13:16:32
kdeplasma-addons/-2022-11-21 13:16:32
kinfocenter/-2022-11-21 13:16:32
kwin/-2022-11-21 13:16:32
kmod/-2022-11-30 22:41:40
kdump-tools/-2022-12-14 01:05:07
kickseed/-2022-12-15 19:02:39
kubuntu-wallpapers/-2022-12-16 01:04:20
kubuntu-settings/-2023-01-13 13:14:30
krb5/-2023-01-26 01:08:26
kde-config-whoopsie/-2023-01-29 04:25:14
kdenlive/-2023-01-30 01:03:06
kbd/-2023-01-30 19:05:10